Time;durP1;ratioP1;P1;durP2;ratioP2;P2;SDS_P1;SDS_P2;PMS_P1;PMS_P2;Temp;Humidity;BMP_temperature;BMP_pressure;BME280_temperature;BME280_humidity;BME280_pressure;Samples;Min_cycle;Max_cycle;Signal;HPM_P1;HPM_P2
2023/11/18 00:00:33;;;;;;;12.43;9.10;;;16.60;56.80;;;;;;4997371;28;20448;-79
2023/11/18 00:03:01;;;;;;;15.27;9.40;;;16.60;56.60;;;;;;5003246;28;20447;-79
2023/11/18 00:05:29;;;;;;;13.00;9.20;;;16.50;57.00;;;;;;5007371;28;20453;-79
2023/11/18 00:07:57;;;;;;;12.67;8.77;;;16.60;56.70;;;;;;4998812;28;20469;-79
2023/11/18 00:10:25;;;;;;;16.30;10.10;;;16.50;56.60;;;;;;4992417;28;20480;-79
2023/11/18 00:12:58;;;;;;;11.57;8.87;;;16.50;56.60;;;;;;4993961;28;20476;-79
2023/11/18 00:15:26;;;;;;;12.50;8.93;;;16.50;57.00;;;;;;5005455;28;20456;-79
2023/11/18 00:17:54;;;;;;;13.00;8.73;;;16.50;56.90;;;;;;5013523;28;20527;-79
2023/11/18 00:20:24;;;;;;;12.87;8.30;;;16.50;57.00;;;;;;5004888;28;20446;-79
2023/11/18 00:22:58;;;;;;;12.00;9.03;;;16.50;57.20;;;;;;5006164;28;20448;-78
2023/11/18 00:25:31;;;;;;;11.83;9.27;;;16.50;57.10;;;;;;5005692;28;20443;-78
2023/11/18 00:28:01;;;;;;;11.70;7.93;;;16.50;56.90;;;;;;5006116;28;20474;-79
2023/11/18 00:30:29;;;;;;;12.63;9.30;;;16.50;57.30;;;;;;5009042;28;20869;-79
2023/11/18 00:32:57;;;;;;;12.70;8.60;;;16.50;57.20;;;;;;5011074;28;20444;-79
2023/11/18 00:35:25;;;;;;;13.10;9.07;;;16.50;57.50;;;;;;5005199;28;20544;-79
2023/11/18 00:37:54;;;;;;;9.63;7.90;;;16.50;57.40;;;;;;5005598;28;20489;-79
2023/11/18 00:40:22;;;;;;;12.10;8.50;;;16.50;57.40;;;;;;5001429;28;20443;-79
2023/11/18 00:42:50;;;;;;;13.40;8.40;;;16.50;57.60;;;;;;5002931;28;20513;-79
2023/11/18 00:45:19;;;;;;;12.63;8.90;;;16.50;57.60;;;;;;5012128;28;20431;-78
2023/11/18 00:47:48;;;;;;;12.40;8.57;;;16.50;57.70;;;;;;5007984;28;20480;-78
2023/11/18 00:50:17;;;;;;;15.10;8.43;;;16.50;57.60;;;;;;5006461;28;20448;-77
2023/11/18 00:52:49;;;;;;;12.17;8.27;;;16.50;57.80;;;;;;5000948;28;20437;-79
2023/11/18 00:55:19;;;;;;;13.63;8.90;;;16.60;57.90;;;;;;4999436;28;20490;-78
2023/11/18 00:57:47;;;;;;;11.63;8.17;;;16.50;58.00;;;;;;5004983;28;20480;-78
2023/11/18 01:00:16;;;;;;;12.07;8.80;;;16.50;57.90;;;;;;4991678;28;20449;-78
2023/11/18 01:02:46;;;;;;;13.97;7.77;;;16.50;58.10;;;;;;5004013;28;20456;-78
2023/11/18 01:05:15;;;;;;;14.20;8.77;;;16.60;58.10;;;;;;5002495;28;20441;-77
2023/11/18 01:07:44;;;;;;;12.30;8.10;;;16.50;58.00;;;;;;5007835;28;20479;-78
2023/11/18 01:10:13;;;;;;;12.37;8.77;;;16.50;58.50;;;;;;4994272;28;20449;-79
2023/11/18 01:12:42;;;;;;;10.80;7.90;;;16.60;58.20;;;;;;4993535;28;20940;-78
2023/11/18 01:15:12;;;;;;;13.73;8.40;;;16.50;58.40;;;;;;5001307;28;20449;-78
2023/11/18 01:17:40;;;;;;;9.83;8.03;;;16.50;58.30;;;;;;5002066;28;20495;-78
2023/11/18 01:20:13;;;;;;;11.57;8.27;;;16.60;58.50;;;;;;5004208;28;20503;-77
2023/11/18 01:22:44;;;;;;;10.40;7.70;;;16.60;58.40;;;;;;4998800;28;20453;-77
2023/11/18 01:25:12;;;;;;;13.00;8.50;;;16.60;58.30;;;;;;5012322;28;20436;-78
2023/11/18 01:27:40;;;;;;;13.50;7.90;;;16.60;58.30;;;;;;5004209;28;20436;-77
2023/11/18 01:30:10;;;;;;;11.63;8.00;;;16.50;58.70;;;;;;5004541;28;20502;-77
2023/11/18 01:32:39;;;;;;;9.67;7.57;;;16.50;58.50;;;;;;5004402;28;20453;-78
2023/11/18 01:35:12;;;;;;;9.53;7.47;;;16.50;58.60;;;;;;5003682;28;20440;-77
2023/11/18 01:37:40;;;;;;;10.33;8.23;;;16.50;58.60;;;;;;5012552;28;20462;-78
2023/11/18 01:40:09;;;;;;;12.73;8.23;;;16.50;58.80;;;;;;5011078;28;20448;-77
2023/11/18 01:42:37;;;;;;;10.53;7.30;;;16.50;58.70;;;;;;5013208;28;20532;-77
2023/11/18 01:45:11;;;;;;;12.17;7.60;;;16.50;58.80;;;;;;5004294;28;20453;-77
2023/11/18 01:47:39;;;;;;;11.13;7.60;;;16.50;58.90;;;;;;5012149;28;20445;-77
2023/11/18 01:50:11;;;;;;;11.00;7.77;;;16.50;58.90;;;;;;5002621;28;20437;-77
2023/11/18 01:52:39;;;;;;;10.40;7.63;;;16.50;58.80;;;;;;5006837;28;20504;-77
2023/11/18 01:55:08;;;;;;;10.33;7.87;;;16.50;59.00;;;;;;5007085;28;20472;-77
2023/11/18 01:57:36;;;;;;;8.87;7.10;;;16.50;59.00;;;;;;5004184;28;20484;-77
2023/11/18 02:00:06;;;;;;;11.63;7.93;;;16.50;58.90;;;;;;4999893;28;20456;-77
2023/11/18 02:02:35;;;;;;;11.20;7.40;;;16.50;59.00;;;;;;5011802;28;20471;-77
2023/11/18 02:05:06;;;;;;;11.73;8.50;;;16.50;59.10;;;;;;5009285;28;20447;-78
2023/11/18 02:07:37;;;;;;;11.70;7.60;;;16.50;59.00;;;;;;5006874;28;20450;-77
2023/11/18 02:10:08;;;;;;;11.40;7.90;;;16.50;59.10;;;;;;5006829;28;20499;-78
2023/11/18 02:12:45;;;;;;;13.83;7.60;;;16.50;59.10;;;;;;5004419;28;20943;-78
2023/11/18 02:15:13;;;;;;;10.40;7.40;;;16.50;59.20;;;;;;5003308;28;20524;-77
2023/11/18 02:17:43;;;;;;;8.90;7.23;;;16.50;59.20;;;;;;5003027;28;20481;-77
2023/11/18 02:20:15;;;;;;;8.63;6.53;;;16.50;59.30;;;;;;4996018;28;20469;-78
2023/11/18 02:22:48;;;;;;;11.13;7.87;;;16.50;59.20;;;;;;5011438;28;20453;-77
2023/11/18 02:25:17;;;;;;;9.30;7.27;;;16.50;59.00;;;;;;5003184;28;20444;-78
2023/11/18 02:27:47;;;;;;;8.87;7.20;;;16.50;59.20;;;;;;5005760;28;20456;-78
2023/11/18 02:30:16;;;;;;;11.13;7.57;;;16.40;59.00;;;;;;5007345;28;20798;-77
2023/11/18 02:32:47;;;;;;;8.10;6.70;;;16.40;59.10;;;;;;5002789;28;20545;-77
2023/11/18 02:35:19;;;;;;;10.50;7.53;;;16.50;59.20;;;;;;4994757;28;20442;-78
2023/11/18 02:37:48;;;;;;;8.90;7.20;;;16.40;59.10;;;;;;5011390;28;20484;-77
2023/11/18 02:40:17;;;;;;;8.97;6.87;;;16.40;59.10;;;;;;5003373;28;20453;-77
2023/11/18 02:42:47;;;;;;;8.63;6.67;;;16.40;59.20;;;;;;4998593;28;20441;-77
2023/11/18 02:45:16;;;;;;;8.17;6.70;;;16.40;59.20;;;;;;5000620;28;20444;-77
2023/11/18 02:47:45;;;;;;;9.73;7.27;;;16.40;59.10;;;;;;5003028;28;20536;-78
2023/11/18 02:50:13;;;;;;;9.23;6.80;;;16.40;59.10;;;;;;5002714;28;20441;-77
2023/11/18 02:52:41;;;;;;;9.57;7.60;;;16.40;59.30;;;;;;5002816;28;20449;-78
2023/11/18 02:55:11;;;;;;;11.80;8.00;;;16.40;59.00;;;;;;5009406;28;20480;-77
2023/11/18 02:57:39;;;;;;;9.97;7.40;;;16.40;59.20;;;;;;5010709;28;20468;-77
2023/11/18 03:00:16;;;;;;;9.67;7.10;;;16.40;59.30;;;;;;5010608;28;20467;-78
2023/11/18 03:02:46;;;;;;;10.17;7.90;;;16.40;59.00;;;;;;5016077;28;20443;-77
2023/11/18 03:05:14;;;;;;;11.70;8.03;;;16.40;59.00;;;;;;5015347;28;20519;-78
2023/11/18 03:07:44;;;;;;;11.83;7.80;;;16.40;59.30;;;;;;4996729;28;20448;-78
2023/11/18 03:10:20;;;;;;;9.83;8.00;;;16.40;59.30;;;;;;5009277;28;20463;-77
2023/11/18 03:12:48;;;;;;;10.57;7.20;;;16.40;59.30;;;;;;5002316;28;20794;-77
2023/11/18 03:15:18;;;;;;;13.20;8.00;;;16.40;59.20;;;;;;5010636;28;20495;-77
2023/11/18 03:17:45;;;;;;;10.83;7.50;;;16.40;59.30;;;;;;5004651;28;20500;-78
2023/11/18 03:20:16;;;;;;;11.20;7.77;;;16.40;59.20;;;;;;5002005;28;20518;-77
2023/11/18 03:22:44;;;;;;;11.60;7.40;;;16.40;59.40;;;;;;5011954;28;20436;-78
2023/11/18 03:25:13;;;;;;;14.27;7.87;;;16.40;59.30;;;;;;5000659;28;20440;-77
2023/11/18 03:27:41;;;;;;;10.83;7.20;;;16.40;59.20;;;;;;5013644;28;20456;-79
2023/11/18 03:30:10;;;;;;;9.40;6.90;;;16.40;59.40;;;;;;5003068;28;20441;-79
2023/11/18 03:32:40;;;;;;;9.73;7.80;;;16.40;59.30;;;;;;4998385;28;20441;-78
2023/11/18 03:35:09;;;;;;;10.77;7.43;;;16.40;59.30;;;;;;5015152;28;20498;-78
2023/11/18 03:37:38;;;;;;;10.33;7.43;;;16.30;59.20;;;;;;5006552;28;20476;-77
2023/11/18 03:40:08;;;;;;;9.90;7.57;;;16.40;59.30;;;;;;5007121;28;20490;-78
2023/11/18 03:42:37;;;;;;;10.67;7.97;;;16.30;59.20;;;;;;4998617;28;20440;-79
2023/11/18 03:45:06;;;;;;;10.73;7.70;;;16.30;59.20;;;;;;4996419;28;20487;-78
2023/11/18 03:47:34;;;;;;;13.33;7.50;;;16.30;59.10;;;;;;5010907;28;20445;-78
2023/11/18 03:50:08;;;;;;;8.13;6.90;;;16.30;59.20;;;;;;5004849;28;20440;-78
2023/11/18 03:52:37;;;;;;;9.33;7.00;;;16.30;59.20;;;;;;5012593;28;20539;-78
2023/11/18 03:55:06;;;;;;;10.57;7.63;;;16.30;59.20;;;;;;5001774;28;20445;-77
2023/11/18 03:57:34;;;;;;;10.00;7.53;;;16.30;59.30;;;;;;5001587;28;20512;-77
2023/11/18 04:00:04;;;;;;;9.80;7.50;;;16.30;59.10;;;;;;5006219;28;20444;-77
2023/11/18 04:02:34;;;;;;;8.93;7.20;;;16.20;59.20;;;;;;5003781;28;20445;-78
2023/11/18 04:05:03;;;;;;;13.97;7.83;;;16.30;59.30;;;;;;5010001;28;20437;-78
2023/11/18 04:07:31;;;;;;;9.77;6.90;;;16.30;59.30;;;;;;5004096;28;20433;-78
2023/11/18 04:10:00;;;;;;;12.63;7.67;;;16.30;59.30;;;;;;5003913;28;20433;-78
2023/11/18 04:12:27;;;;;;;10.30;7.07;;;16.30;59.30;;;;;;5012615;28;20837;-77
2023/11/18 04:14:55;;;;;;;10.33;7.10;;;16.30;59.10;;;;;;4998254;28;20432;-77
2023/11/18 04:17:27;;;;;;;11.13;7.23;;;16.20;59.20;;;;;;5012838;28;20974;-77
2023/11/18 04:19:55;;;;;;;11.73;7.80;;;16.30;59.30;;;;;;5000705;28;20487;-78
2023/11/18 04:22:25;;;;;;;9.40;6.63;;;16.20;59.00;;;;;;5012283;28;20448;-77
2023/11/18 04:24:53;;;;;;;11.47;7.97;;;16.20;59.10;;;;;;5009942;28;20468;-77
2023/11/18 04:27:21;;;;;;;10.80;7.43;;;16.20;59.30;;;;;;5006144;28;20495;-77
2023/11/18 04:29:49;;;;;;;11.73;7.50;;;16.20;59.20;;;;;;4997523;28;20875;-77
2023/11/18 04:32:17;;;;;;;9.17;7.00;;;16.20;59.40;;;;;;4998281;28;20488;-77
2023/11/18 04:34:45;;;;;;;10.63;7.60;;;16.20;59.10;;;;;;5008578;28;20476;-77
2023/11/18 04:37:13;;;;;;;10.80;7.60;;;16.20;59.20;;;;;;4997643;28;20473;-78
2023/11/18 04:39:42;;;;;;;10.43;7.40;;;16.20;59.20;;;;;;5005891;28;20471;-77
2023/11/18 04:42:10;;;;;;;12.90;7.40;;;16.20;59.00;;;;;;5003027;28;20471;-78
2023/11/18 04:44:39;;;;;;;11.73;8.20;;;16.20;59.20;;;;;;5004153;28;20485;-77
2023/11/18 04:47:07;;;;;;;13.73;8.30;;;16.10;58.80;;;;;;5004040;28;20472;-78
2023/11/18 04:49:35;;;;;;;15.13;8.30;;;16.10;59.10;;;;;;5009049;23;20494;-74
2023/11/18 04:52:03;;;;;;;13.40;7.90;;;16.10;59.00;;;;;;4997605;28;20445;-75
2023/11/18 04:54:31;;;;;;;14.13;8.60;;;16.10;59.10;;;;;;4991534;28;20601;-76
2023/11/18 04:57:01;;;;;;;12.33;8.23;;;16.10;59.10;;;;;;4989999;28;20453;-75
2023/11/18 04:59:30;;;;;;;11.97;8.60;;;16.10;59.10;;;;;;4991202;28;20469;-75
2023/11/18 05:01:58;;;;;;;12.83;8.10;;;16.10;58.80;;;;;;4989465;28;20716;-75
2023/11/18 05:04:26;;;;;;;12.30;8.00;;;16.10;59.10;;;;;;4991116;28;20434;-75
2023/11/18 05:06:55;;;;;;;12.40;7.57;;;16.10;59.10;;;;;;4991105;28;20783;-75
2023/11/18 05:09:22;;;;;;;13.67;8.80;;;16.10;59.10;;;;;;4994087;28;20453;-76
2023/11/18 05:11:50;;;;;;;13.07;7.97;;;16.00;59.00;;;;;;4995183;28;20449;-76
2023/11/18 05:14:20;;;;;;;12.33;8.00;;;16.00;58.90;;;;;;4994932;28;20452;-74
2023/11/18 05:16:48;;;;;;;11.20;7.83;;;16.00;59.00;;;;;;4994812;28;20433;-75
2023/11/18 05:19:16;;;;;;;13.00;7.90;;;16.00;59.00;;;;;;4995876;28;20500;-75
2023/11/18 05:21:49;;;;;;;13.67;8.70;;;16.00;58.70;;;;;;4992351;28;20484;-75
2023/11/18 05:24:17;;;;;;;11.60;8.03;;;16.00;58.90;;;;;;4989766;28;20446;-75
2023/11/18 05:26:45;;;;;;;11.93;8.07;;;16.00;58.90;;;;;;4992375;28;20449;-75
2023/11/18 05:29:16;;;;;;;12.20;7.77;;;16.00;58.90;;;;;;4995171;28;20461;-75
2023/11/18 05:31:46;;;;;;;11.80;8.30;;;16.00;58.90;;;;;;4994889;28;20817;-75
2023/11/18 05:34:14;;;;;;;11.03;7.87;;;15.90;58.50;;;;;;4994760;28;20469;-75
2023/11/18 05:36:42;;;;;;;14.20;8.50;;;15.90;58.80;;;;;;4994568;28;20445;-75
2023/11/18 05:39:10;;;;;;;10.83;7.73;;;15.90;58.80;;;;;;4987594;28;20487;-76
2023/11/18 05:41:39;;;;;;;11.97;7.97;;;15.90;58.70;;;;;;4994504;28;20480;-75
2023/11/18 05:44:09;;;;;;;10.77;7.77;;;15.90;58.80;;;;;;4991780;28;20483;-75
2023/11/18 05:46:38;;;;;;;10.00;7.90;;;15.90;58.90;;;;;;4994598;28;20445;-75
2023/11/18 05:49:08;;;;;;;10.70;7.87;;;15.90;58.80;;;;;;4994111;28;20469;-74
2023/11/18 05:51:36;;;;;;;9.60;6.70;;;15.90;58.80;;;;;;4994583;28;20453;-75
2023/11/18 05:54:05;;;;;;;11.07;7.90;;;15.90;58.70;;;;;;4992371;28;20492;-74
2023/11/18 05:56:33;;;;;;;10.33;7.20;;;15.90;58.90;;;;;;4993585;28;20457;-75
2023/11/18 05:59:02;;;;;;;11.60;7.83;;;15.90;58.70;;;;;;4994817;28;20556;-75
2023/11/18 06:01:31;;;;;;;11.57;7.90;;;15.90;58.90;;;;;;4994527;28;20449;-75
2023/11/18 06:04:00;;;;;;;9.07;7.00;;;15.90;58.80;;;;;;4994644;28;20450;-75
2023/11/18 06:06:31;;;;;;;10.17;7.30;;;15.90;58.80;;;;;;4994369;28;20457;-75
2023/11/18 06:09:04;;;;;;;12.00;7.77;;;15.90;58.80;;;;;;4993937;28;20547;-76
2023/11/18 06:11:33;;;;;;;14.27;8.10;;;15.90;58.70;;;;;;4992571;28;20457;-75
2023/11/18 06:14:01;;;;;;;11.63;7.97;;;15.90;58.80;;;;;;4993730;28;20445;-75
2023/11/18 06:16:29;;;;;;;12.43;8.10;;;15.90;58.80;;;;;;4994363;28;20445;-75
2023/11/18 06:18:58;;;;;;;14.27;8.03;;;15.90;58.80;;;;;;4993533;28;20480;-75
2023/11/18 06:21:29;;;;;;;14.53;9.20;;;15.90;58.80;;;;;;4993617;28;20786;-75
2023/11/18 06:23:59;;;;;;;13.33;9.30;;;15.90;59.30;;;;;;4994092;28;20455;-76
2023/11/18 06:26:28;;;;;;;14.67;10.20;;;15.90;58.80;;;;;;4994025;28;20491;-75
2023/11/18 06:28:56;;;;;;;18.50;12.20;;;15.90;58.60;;;;;;4993243;28;20458;-75
2023/11/18 06:31:24;;;;;;;18.87;11.40;;;15.80;58.80;;;;;;4992922;28;20450;-75
2023/11/18 06:33:52;;;;;;;18.90;11.97;;;15.90;58.80;;;;;;4993903;28;20453;-75
2023/11/18 06:36:22;;;;;;;19.77;11.97;;;15.80;58.50;;;;;;4993604;28;20480;-75
2023/11/18 06:38:51;;;;;;;21.27;13.30;;;15.80;58.90;;;;;;4993420;28;20477;-75
2023/11/18 06:41:22;;;;;;;19.80;12.57;;;15.80;58.90;;;;;;4993814;28;20508;-75
2023/11/18 06:44:00;;;;;;;21.87;13.00;;;15.80;58.60;;;;;;4990504;28;20457;-75
2023/11/18 06:46:33;;;;;;;20.93;13.03;;;15.80;58.80;;;;;;4993827;28;20456;-75
2023/11/18 06:49:03;;;;;;;23.10;13.50;;;15.80;58.70;;;;;;4992316;28;21012;-75
2023/11/18 06:51:34;;;;;;;21.97;13.60;;;15.80;58.70;;;;;;4993807;28;20456;-75
2023/11/18 06:54:08;;;;;;;21.23;13.80;;;15.80;58.80;;;;;;4988750;28;20484;-75
2023/11/18 06:56:38;;;;;;;21.90;12.90;;;15.80;58.80;;;;;;4994116;28;20533;-75
2023/11/18 06:59:07;;;;;;;21.40;13.93;;;15.80;58.80;;;;;;4993590;28;20484;-75
2023/11/18 07:01:35;;;;;;;22.03;14.20;;;15.80;58.50;;;;;;4992493;28;20453;-75
2023/11/18 07:04:08;;;;;;;25.40;15.40;;;15.80;58.80;;;;;;4998761;28;20452;-75
2023/11/18 07:06:38;;;;;;;25.27;14.70;;;15.80;58.70;;;;;;4992789;28;20457;-75
2023/11/18 07:09:12;;;;;;;24.77;14.10;;;15.80;58.80;;;;;;4993408;28;20477;-75
2023/11/18 07:11:41;;;;;;;23.10;13.60;;;15.80;58.70;;;;;;4990677;28;20508;-75
2023/11/18 07:14:10;;;;;;;24.03;14.30;;;15.90;58.80;;;;;;4989938;28;20485;-75
2023/11/18 07:16:38;;;;;;;20.33;12.93;;;15.90;58.60;;;;;;4989880;28;20507;-75
2023/11/18 07:19:07;;;;;;;22.20;14.20;;;15.90;58.80;;;;;;4993599;28;20477;-75
2023/11/18 07:21:35;;;;;;;23.33;14.10;;;15.80;58.70;;;;;;4994176;28;20472;-76
2023/11/18 07:24:03;;;;;;;23.00;13.63;;;15.90;58.70;;;;;;4993934;28;20437;-76
2023/11/18 07:26:30;;;;;;;20.60;13.17;;;15.90;58.70;;;;;;4993803;28;20512;-75
2023/11/18 07:29:00;;;;;;;23.93;14.47;;;15.90;58.60;;;;;;4993473;28;20481;-75
2023/11/18 07:31:28;;;;;;;21.27;13.87;;;15.90;58.70;;;;;;4993487;28;20877;-75
2023/11/18 07:33:57;;;;;;;22.87;14.47;;;15.90;58.60;;;;;;4992968;28;20456;-75
2023/11/18 07:36:25;;;;;;;21.27;13.30;;;15.80;58.40;;;;;;4993702;28;20533;-75
2023/11/18 07:38:55;;;;;;;25.23;13.90;;;15.90;58.80;;;;;;4993454;28;20560;-75
2023/11/18 07:41:24;;;;;;;21.67;13.50;;;15.90;58.60;;;;;;4993471;28;20438;-75
2023/11/18 07:43:55;;;;;;;21.63;13.07;;;15.90;58.80;;;;;;4993309;28;20444;-77
2023/11/18 07:46:25;;;;;;;19.97;12.70;;;15.90;58.70;;;;;;4993736;28;20429;-76
2023/11/18 07:48:53;;;;;;;18.67;12.60;;;15.90;58.70;;;;;;4993368;28;20492;-76
2023/11/18 07:51:23;;;;;;;20.17;12.37;;;16.00;58.80;;;;;;4996571;28;20453;-76
2023/11/18 07:53:51;;;;;;;19.30;12.10;;;16.00;58.60;;;;;;4992305;28;20473;-75
2023/11/18 07:56:20;;;;;;;20.13;12.87;;;16.00;58.80;;;;;;4993946;28;20447;-75
2023/11/18 07:58:49;;;;;;;19.67;13.03;;;16.00;58.60;;;;;;4993260;28;20453;-75
2023/11/18 08:01:16;;;;;;;21.10;12.43;;;15.90;58.50;;;;;;4993428;28;20447;-75
2023/11/18 08:03:47;;;;;;;19.83;12.70;;;15.90;58.60;;;;;;4992405;28;20453;-75
2023/11/18 08:06:15;;;;;;;18.37;11.63;;;16.00;58.60;;;;;;4992867;28;20499;-74
2023/11/18 08:08:43;;;;;;;19.17;11.90;;;16.00;58.70;;;;;;4984403;28;20529;-74
2023/11/18 08:11:11;;;;;;;19.37;12.37;;;16.00;58.80;;;;;;4991838;28;20536;-75
2023/11/18 08:13:39;;;;;;;20.13;12.53;;;16.00;58.70;;;;;;4991848;28;20452;-75
2023/11/18 08:16:08;;;;;;;19.20;11.90;;;16.00;58.70;;;;;;4992359;28;20434;-75
2023/11/18 08:18:37;;;;;;;16.87;11.43;;;16.00;58.70;;;;;;4992906;28;20491;-75
2023/11/18 08:21:07;;;;;;;18.07;11.33;;;16.00;58.50;;;;;;4988113;28;20536;-75
2023/11/18 08:23:35;;;;;;;18.87;11.60;;;16.00;58.60;;;;;;4999411;28;20972;-75
2023/11/18 08:26:05;;;;;;;19.67;11.83;;;16.00;59.20;;;;;;4992280;28;20437;-76
2023/11/18 08:28:34;;;;;;;18.60;11.83;;;16.10;58.60;;;;;;4986716;28;20425;-75
2023/11/18 08:31:02;;;;;;;17.40;11.23;;;16.10;58.60;;;;;;4993177;28;20457;-75
2023/11/18 08:33:30;;;;;;;18.77;11.47;;;16.10;58.60;;;;;;4985283;28;20445;-75
2023/11/18 08:35:58;;;;;;;20.60;12.00;;;16.10;58.80;;;;;;4993115;28;20532;-75
2023/11/18 08:38:27;;;;;;;16.47;10.87;;;16.20;58.80;;;;;;4992782;28;20540;-76
2023/11/18 08:40:56;;;;;;;19.83;11.83;;;16.30;58.80;;;;;;4988168;28;20469;-75
2023/11/18 08:43:25;;;;;;;18.97;11.57;;;16.30;58.80;;;;;;4994352;28;20440;-76
2023/11/18 08:45:53;;;;;;;17.10;11.17;;;16.30;58.80;;;;;;4991833;28;20456;-76
2023/11/18 08:48:22;;;;;;;18.30;11.67;;;16.40;58.80;;;;;;4995821;28;20471;-74
2023/11/18 08:50:51;;;;;;;17.43;11.20;;;16.40;58.80;;;;;;4996282;28;20465;-75
2023/11/18 08:53:25;;;;;;;17.80;11.90;;;16.40;58.60;;;;;;4977903;28;20464;-75
2023/11/18 08:55:55;;;;;;;16.17;11.23;;;16.50;58.70;;;;;;4992271;28;20534;-76
2023/11/18 08:58:27;;;;;;;42.43;22.57;;;16.50;58.50;;;;;;4992765;28;20465;-75
2023/11/18 09:01:04;;;;;;;35.43;20.93;;;14.20;52.70;;;;;;4996119;28;20524;-74
2023/11/18 09:03:35;;;;;;;45.70;23.17;;;13.00;56.50;;;;;;4985510;28;20488;-77
2023/11/18 09:06:05;;;;;;;44.33;23.50;;;11.80;57.30;;;;;;4994035;28;20449;-76
2023/11/18 09:08:34;;;;;;;41.73;22.20;;;11.10;58.90;;;;;;4994280;28;20449;-76
2023/11/18 09:11:05;;;;;;;45.30;23.70;;;10.80;60.50;;;;;;4995015;28;20444;-77
2023/11/18 09:13:34;;;;;;;41.60;20.90;;;9.90;62.80;;;;;;4995089;28;20445;-77
2023/11/18 09:16:03;;;;;;;44.10;22.27;;;9.90;64.70;;;;;;4994767;28;20940;-76
2023/11/18 09:18:33;;;;;;;42.77;22.77;;;10.20;68.20;;;;;;4995260;28;20453;-76
2023/11/18 09:21:03;;;;;;;41.40;20.43;;;11.30;66.00;;;;;;4992355;28;20563;-77
2023/11/18 09:23:31;;;;;;;42.70;21.30;;;12.10;64.10;;;;;;4991318;28;20511;-79
2023/11/18 09:26:00;;;;;;;41.00;19.77;;;12.70;61.50;;;;;;4993517;28;20450;-78
2023/11/18 09:28:29;;;;;;;38.93;20.43;;;13.10;59.40;;;;;;4999964;28;20485;-78
2023/11/18 09:30:58;;;;;;;39.07;20.77;;;13.50;58.60;;;;;;4994004;28;20496;-78
2023/11/18 09:33:28;;;;;;;35.63;19.83;;;13.70;58.20;;;;;;4994486;28;20445;-76
2023/11/18 09:35:59;;;;;;;35.20;19.17;;;13.90;57.80;;;;;;4992964;28;20464;-76
2023/11/18 09:38:31;;;;;;;35.63;20.27;;;14.20;57.00;;;;;;4989043;28;20534;-77
2023/11/18 09:41:02;;;;;;;34.27;19.33;;;14.30;56.40;;;;;;4988058;28;20480;-76
2023/11/18 09:43:36;;;;;;;31.00;18.10;;;14.50;56.60;;;;;;4988563;28;20535;-79
2023/11/18 09:46:12;;;;;;;32.50;18.50;;;14.60;55.80;;;;;;4993307;28;20472;-77
2023/11/18 09:48:46;;;;;;;32.30;18.47;;;14.70;55.70;;;;;;4986152;28;20535;-76
2023/11/18 09:51:17;;;;;;;32.83;17.83;;;14.90;55.60;;;;;;4989972;28;20461;-76
2023/11/18 09:53:46;;;;;;;28.50;16.93;;;14.80;55.40;;;;;;4990461;28;20461;-76
2023/11/18 09:56:26;;;;;;;30.60;17.83;;;14.70;56.30;;;;;;4987719;28;20512;-77
2023/11/18 09:59:05;;;;;;;32.63;19.23;;;14.80;55.90;;;;;;4990454;28;20477;-77
2023/11/18 10:01:37;;;;;;;30.27;16.90;;;14.70;54.80;;;;;;4982852;28;20461;-77
2023/11/18 10:04:07;;;;;;;29.20;17.40;;;14.80;55.80;;;;;;4991628;28;20457;-76
2023/11/18 10:06:36;;;;;;;31.17;17.53;;;14.90;55.00;;;;;;4990043;28;20457;-75
2023/11/18 10:09:15;;;;;;;29.07;17.00;;;14.80;54.80;;;;;;4990454;28;20472;-76
2023/11/18 10:11:46;;;;;;;29.30;17.67;;;14.70;55.10;;;;;;4986536;28;20476;-76
2023/11/18 10:14:16;;;;;;;33.03;17.50;;;14.70;55.00;;;;;;4990045;28;20670;-77
2023/11/18 10:16:46;;;;;;;29.47;16.67;;;14.60;54.60;;;;;;4987197;28;20557;-76
2023/11/18 10:19:17;;;;;;;30.70;17.10;;;14.60;54.60;;;;;;4993141;28;20469;-77
2023/11/18 10:21:49;;;;;;;28.37;16.90;;;14.70;54.90;;;;;;4990615;28;20469;-77
2023/11/18 10:24:20;;;;;;;29.47;17.27;;;14.80;54.30;;;;;;4988961;28;20445;-77
2023/11/18 10:26:56;;;;;;;31.00;16.93;;;14.80;54.80;;;;;;4989999;28;20464;-77
2023/11/18 10:29:27;;;;;;;27.53;15.43;;;14.90;54.10;;;;;;4988171;28;20476;-76
2023/11/18 10:32:09;;;;;;;30.57;16.17;;;15.00;54.70;;;;;;4989892;28;20453;-77
2023/11/18 10:34:38;;;;;;;27.33;15.87;;;15.20;54.40;;;;;;4990855;28;20454;-77
2023/11/18 10:37:06;;;;;;;26.07;15.47;;;15.20;54.00;;;;;;4986617;28;20453;-77
2023/11/18 10:39:35;;;;;;;27.10;16.00;;;15.30;53.80;;;;;;4991621;28;20474;-77
2023/11/18 10:42:04;;;;;;;24.80;14.90;;;15.30;53.30;;;;;;4992138;28;20473;-77
2023/11/18 10:44:33;;;;;;;30.87;15.73;;;15.20;53.90;;;;;;4988892;28;20453;-76
2023/11/18 10:47:01;;;;;;;23.70;15.10;;;15.20;54.20;;;;;;4986247;28;20453;-77
2023/11/18 10:49:36;;;;;;;24.27;14.47;;;15.30;54.20;;;;;;5007855;22;20491;-78
2023/11/18 10:52:08;;;;;;;25.23;14.70;;;15.40;53.90;;;;;;5011398;28;20459;-81
2023/11/18 10:54:37;;;;;;;30.37;16.90;;;15.50;53.60;;;;;;5014732;28;20452;-79
2023/11/18 10:57:07;;;;;;;28.00;14.80;;;15.50;53.10;;;;;;5016413;28;20437;-77
2023/11/18 10:59:37;;;;;;;27.27;15.27;;;15.50;53.60;;;;;;5011990;28;20551;-77
2023/11/18 11:02:21;;;;;;;30.10;16.10;;;15.50;53.20;;;;;;5010327;28;20542;-78
2023/11/18 11:04:49;;;;;;;27.93;14.83;;;15.50;53.50;;;;;;5005269;28;20451;-79
2023/11/18 11:07:19;;;;;;;29.83;16.23;;;15.30;53.00;;;;;;5011912;28;20472;-78
2023/11/18 11:09:47;;;;;;;29.50;16.80;;;15.30;53.70;;;;;;5005306;28;20479;-79
2023/11/18 11:12:16;;;;;;;26.70;14.93;;;15.40;53.50;;;;;;5012565;28;20495;-78
2023/11/18 11:14:49;;;;;;;33.30;16.83;;;15.50;53.20;;;;;;5011275;28;20437;-78
2023/11/18 11:17:26;;;;;;;30.03;17.10;;;15.30;53.10;;;;;;5012384;28;20440;-78
2023/11/18 11:20:11;;;;;;;29.30;15.70;;;15.20;53.40;;;;;;5007159;28;20471;-79
2023/11/18 11:22:41;;;;;;;30.13;16.07;;;15.30;53.10;;;;;;5008203;28;20538;-80
2023/11/18 11:25:21;;;;;;;29.00;15.57;;;15.20;53.60;;;;;;5006212;28;20460;-79
2023/11/18 11:28:01;;;;;;;26.27;15.50;;;15.30;53.70;;;;;;5009955;28;20444;-79
2023/11/18 11:30:33;;;;;;;27.37;15.27;;;15.30;53.50;;;;;;5014508;28;20463;-80
2023/11/18 11:33:04;;;;;;;29.33;15.60;;;15.30;52.90;;;;;;5021281;28;20498;-80
2023/11/18 11:35:32;;;;;;;32.80;16.17;;;15.40;53.80;;;;;;5016425;28;20464;-80
2023/11/18 11:38:09;;;;;;;31.80;16.23;;;15.40;53.50;;;;;;5021048;28;20449;-80
2023/11/18 11:40:38;;;;;;;28.97;15.40;;;15.40;53.30;;;;;;5015699;28;20512;-81
2023/11/18 11:43:09;;;;;;;28.37;15.70;;;15.20;53.00;;;;;;5019188;28;20441;-81
2023/11/18 11:45:40;;;;;;;32.20;16.90;;;15.30;53.70;;;;;;5018320;28;20519;-79
2023/11/18 11:48:15;;;;;;;29.27;16.60;;;15.20;53.70;;;;;;5019504;28;20444;-79
2023/11/18 11:50:55;;;;;;;33.47;16.30;;;15.30;54.10;;;;;;5011166;28;20525;-80
2023/11/18 11:53:29;;;;;;;30.63;16.60;;;15.20;53.20;;;;;;5018612;28;20448;-79
2023/11/18 11:56:05;;;;;;;34.00;17.30;;;15.20;53.80;;;;;;5015506;28;20453;-79
2023/11/18 11:58:36;;;;;;;32.60;17.27;;;15.20;53.60;;;;;;5021366;28;20444;-79
2023/11/18 12:01:18;;;;;;;32.23;16.30;;;15.30;53.50;;;;;;5021915;28;20475;-79
2023/11/18 12:03:49;;;;;;;30.53;17.50;;;15.30;53.50;;;;;;5011732;28;20464;-79
2023/11/18 12:06:21;;;;;;;32.17;18.20;;;15.30;53.50;;;;;;5019097;28;20451;-79
2023/11/18 12:08:52;;;;;;;33.07;17.23;;;15.30;53.80;;;;;;5016339;28;20453;-79
2023/11/18 12:11:22;;;;;;;34.67;18.00;;;15.30;53.50;;;;;;5023238;28;20544;-80
2023/11/18 12:14:12;;;;;;;35.97;18.17;;;15.30;53.40;;;;;;5016063;28;20448;-80
2023/11/18 12:17:09;;;;;;;35.57;18.37;;;15.40;53.80;;;;;;5019563;28;20459;-79
2023/11/18 12:19:44;;;;;;;35.50;18.63;;;15.40;53.40;;;;;;5019551;28;20464;-81
2023/11/18 12:22:24;;;;;;;39.37;18.47;;;15.40;53.80;;;;;;5015266;28;20456;-81
2023/11/18 12:25:33;;;;;;;33.40;19.10;;;15.50;53.70;;;;;;5014998;28;20451;-80
2023/11/18 12:28:08;;;;;;;34.47;17.97;;;15.30;53.60;;;;;;5016628;28;20445;-81
2023/11/18 12:30:43;;;;;;;36.80;19.80;;;15.20;53.80;;;;;;5019685;28;20466;-80
2023/11/18 12:33:18;;;;;;;37.40;18.20;;;15.10;54.10;;;;;;5014031;28;20445;-80
2023/11/18 12:36:07;;;;;;;39.70;19.33;;;15.20;54.10;;;;;;5016194;28;20483;-80
2023/11/18 12:39:13;;;;;;;41.73;19.77;;;15.20;54.70;;;;;;5017945;28;20463;-80
2023/11/18 12:41:41;;;;;;;35.70;18.77;;;15.20;54.20;;;;;;5018530;28;20472;-80
2023/11/18 12:44:18;;;;;;;37.50;19.00;;;15.30;54.10;;;;;;5011316;28;20963;-81
2023/11/18 12:46:50;;;;;;;37.37;20.03;;;15.20;54.10;;;;;;5014585;28;20454;-81
2023/11/18 12:49:23;;;;;;;37.33;18.60;;;15.20;54.10;;;;;;5014742;28;20500;-80